sensor_id;sensor_type;location;lat;lon;timestamp;P1;durP1;ratioP1;P2;durP2;ratioP2
66402;SDS011;53212;52.112;5.144;2023-03-23T00:01:00;7.20;;;3.60;;
66402;SDS011;53212;52.112;5.144;2023-03-23T00:03:26;4.30;;;3.10;;
66402;SDS011;53212;52.112;5.144;2023-03-23T00:05:55;3.80;;;3.30;;
66402;SDS011;53212;52.112;5.144;2023-03-23T00:08:25;8.40;;;3.50;;
66402;SDS011;53212;52.112;5.144;2023-03-23T00:10:52;5.40;;;3.40;;
66402;SDS011;53212;52.112;5.144;2023-03-23T00:13:22;4.40;;;3.20;;
66402;SDS011;53212;52.112;5.144;2023-03-23T00:15:49;5.00;;;3.30;;
66402;SDS011;53212;52.112;5.144;2023-03-23T00:18:17;6.10;;;3.30;;
66402;SDS011;53212;52.112;5.144;2023-03-23T00:20:51;5.20;;;3.30;;
66402;SDS011;53212;52.112;5.144;2023-03-23T00:23:19;5.40;;;3.00;;
66402;SDS011;53212;52.112;5.144;2023-03-23T00:25:55;7.30;;;3.10;;
66402;SDS011;53212;52.112;5.144;2023-03-23T00:28:22;3.10;;;2.70;;
66402;SDS011;53212;52.112;5.144;2023-03-23T00:30:54;4.50;;;2.90;;
66402;SDS011;53212;52.112;5.144;2023-03-23T00:33:28;3.40;;;3.10;;
66402;SDS011;53212;52.112;5.144;2023-03-23T00:35:58;3.70;;;2.90;;
66402;SDS011;53212;52.112;5.144;2023-03-23T00:38:24;4.40;;;2.90;;
66402;SDS011;53212;52.112;5.144;2023-03-23T00:40:50;4.40;;;2.70;;
66402;SDS011;53212;52.112;5.144;2023-03-23T00:43:17;6.40;;;2.80;;
66402;SDS011;53212;52.112;5.144;2023-03-23T00:45:44;3.40;;;2.40;;
66402;SDS011;53212;52.112;5.144;2023-03-23T00:48:18;4.30;;;2.60;;
66402;SDS011;53212;52.112;5.144;2023-03-23T00:50:44;4.70;;;2.40;;
66402;SDS011;53212;52.112;5.144;2023-03-23T00:53:10;4.50;;;2.90;;
66402;SDS011;53212;52.112;5.144;2023-03-23T00:55:36;5.00;;;2.40;;
66402;SDS011;53212;52.112;5.144;2023-03-23T00:58:01;2.80;;;2.20;;
66402;SDS011;53212;52.112;5.144;2023-03-23T01:00:27;3.10;;;2.80;;
66402;SDS011;53212;52.112;5.144;2023-03-23T01:02:53;4.80;;;2.50;;
66402;SDS011;53212;52.112;5.144;2023-03-23T01:05:19;4.00;;;2.70;;
66402;SDS011;53212;52.112;5.144;2023-03-23T01:07:46;2.80;;;2.30;;
66402;SDS011;53212;52.112;5.144;2023-03-23T01:10:13;2.90;;;2.30;;
66402;SDS011;53212;52.112;5.144;2023-03-23T01:12:43;5.40;;;2.50;;
66402;SDS011;53212;52.112;5.144;2023-03-23T01:15:13;3.10;;;2.90;;
66402;SDS011;53212;52.112;5.144;2023-03-23T01:17:40;3.30;;;2.40;;
66402;SDS011;53212;52.112;5.144;2023-03-23T01:20:07;5.60;;;2.20;;
66402;SDS011;53212;52.112;5.144;2023-03-23T01:22:35;2.60;;;2.40;;
66402;SDS011;53212;52.112;5.144;2023-03-23T01:25:00;3.90;;;2.60;;
66402;SDS011;53212;52.112;5.144;2023-03-23T01:27:26;3.50;;;2.30;;
66402;SDS011;53212;52.112;5.144;2023-03-23T01:29:51;3.10;;;2.20;;
66402;SDS011;53212;52.112;5.144;2023-03-23T01:32:17;2.20;;;2.00;;
66402;SDS011;53212;52.112;5.144;2023-03-23T01:34:42;3.90;;;2.20;;
66402;SDS011;53212;52.112;5.144;2023-03-23T01:37:08;4.00;;;2.40;;
66402;SDS011;53212;52.112;5.144;2023-03-23T01:39:35;3.80;;;2.10;;
66402;SDS011;53212;52.112;5.144;2023-03-23T01:42:02;5.50;;;2.70;;
66402;SDS011;53212;52.112;5.144;2023-03-23T01:46:56;4.60;;;2.30;;
66402;SDS011;53212;52.112;5.144;2023-03-23T01:49:27;2.70;;;2.30;;
66402;SDS011;53212;52.112;5.144;2023-03-23T01:52:01;2.60;;;2.40;;
66402;SDS011;53212;52.112;5.144;2023-03-23T01:54:29;2.60;;;2.40;;
66402;SDS011;53212;52.112;5.144;2023-03-23T01:57:02;3.80;;;2.30;;
66402;SDS011;53212;52.112;5.144;2023-03-23T01:59:32;6.00;;;2.40;;
66402;SDS011;53212;52.112;5.144;2023-03-23T02:01:59;3.60;;;2.60;;
66402;SDS011;53212;52.112;5.144;2023-03-23T02:04:26;3.50;;;2.40;;
66402;SDS011;53212;52.112;5.144;2023-03-23T02:06:52;2.50;;;2.30;;
66402;SDS011;53212;52.112;5.144;2023-03-23T02:09:21;2.60;;;2.40;;
66402;SDS011;53212;52.112;5.144;2023-03-23T02:11:47;2.80;;;2.30;;
66402;SDS011;53212;52.112;5.144;2023-03-23T02:14:15;2.50;;;2.20;;
66402;SDS011;53212;52.112;5.144;2023-03-23T02:31:34;2.80;;;2.20;;
66402;SDS011;53212;52.112;5.144;2023-03-23T02:34:22;2.40;;;2.10;;
66402;SDS011;53212;52.112;5.144;2023-03-23T02:37:04;4.00;;;2.50;;
66402;SDS011;53212;52.112;5.144;2023-03-23T02:39:42;2.50;;;2.30;;
66402;SDS011;53212;52.112;5.144;2023-03-23T02:42:12;3.70;;;2.90;;
66402;SDS011;53212;52.112;5.144;2023-03-23T02:44:43;3.80;;;3.10;;
66402;SDS011;53212;52.112;5.144;2023-03-23T02:47:19;2.90;;;2.40;;
66402;SDS011;53212;52.112;5.144;2023-03-23T02:49:50;2.90;;;2.20;;
66402;SDS011;53212;52.112;5.144;2023-03-23T02:52:21;4.40;;;2.50;;
66402;SDS011;53212;52.112;5.144;2023-03-23T02:54:49;2.20;;;2.00;;
66402;SDS011;53212;52.112;5.144;2023-03-23T02:57:17;3.50;;;2.00;;
66402;SDS011;53212;52.112;5.144;2023-03-23T02:59:43;4.70;;;2.00;;
66402;SDS011;53212;52.112;5.144;2023-03-23T03:11:06;3.40;;;1.90;;
66402;SDS011;53212;52.112;5.144;2023-03-23T03:17:03;4.00;;;2.10;;
66402;SDS011;53212;52.112;5.144;2023-03-23T03:19:40;4.30;;;1.90;;
66402;SDS011;53212;52.112;5.144;2023-03-23T03:22:09;2.60;;;1.80;;
66402;SDS011;53212;52.112;5.144;2023-03-23T03:24:35;4.10;;;2.00;;
66402;SDS011;53212;52.112;5.144;2023-03-23T03:27:02;4.00;;;1.60;;
66402;SDS011;53212;52.112;5.144;2023-03-23T03:29:36;2.90;;;1.50;;
66402;SDS011;53212;52.112;5.144;2023-03-23T03:32:06;5.30;;;1.80;;
66402;SDS011;53212;52.112;5.144;2023-03-23T03:34:36;3.60;;;1.70;;
66402;SDS011;53212;52.112;5.144;2023-03-23T03:37:03;2.50;;;1.70;;
66402;SDS011;53212;52.112;5.144;2023-03-23T03:39:34;2.90;;;1.90;;
66402;SDS011;53212;52.112;5.144;2023-03-23T03:42:02;3.80;;;1.80;;
66402;SDS011;53212;52.112;5.144;2023-03-23T03:44:28;2.20;;;1.30;;
66402;SDS011;53212;52.112;5.144;2023-03-23T03:46:53;3.30;;;1.80;;
66402;SDS011;53212;52.112;5.144;2023-03-23T03:49:19;2.70;;;1.60;;
66402;SDS011;53212;52.112;5.144;2023-03-23T03:51:45;3.60;;;1.60;;
66402;SDS011;53212;52.112;5.144;2023-03-23T03:54:10;4.40;;;1.70;;
66402;SDS011;53212;52.112;5.144;2023-03-23T03:56:37;4.60;;;1.90;;
66402;SDS011;53212;52.112;5.144;2023-03-23T03:59:09;3.30;;;1.70;;
66402;SDS011;53212;52.112;5.144;2023-03-23T04:01:36;2.60;;;1.70;;
66402;SDS011;53212;52.112;5.144;2023-03-23T04:04:03;6.20;;;2.20;;
66402;SDS011;53212;52.112;5.144;2023-03-23T04:06:29;3.90;;;1.50;;
66402;SDS011;53212;52.112;5.144;2023-03-23T04:08:58;2.70;;;1.30;;
66402;SDS011;53212;52.112;5.144;2023-03-23T04:11:26;2.50;;;1.60;;
66402;SDS011;53212;52.112;5.144;2023-03-23T04:13:51;2.40;;;1.50;;
66402;SDS011;53212;52.112;5.144;2023-03-23T04:16:17;5.10;;;2.30;;
66402;SDS011;53212;52.112;5.144;2023-03-23T04:18:43;6.10;;;1.90;;
66402;SDS011;53212;52.112;5.144;2023-03-23T04:21:09;6.30;;;2.10;;
66402;SDS011;53212;52.112;5.144;2023-03-23T04:23:36;5.00;;;2.50;;
66402;SDS011;53212;52.112;5.144;2023-03-23T04:26:03;6.10;;;2.80;;
66402;SDS011;53212;52.112;5.144;2023-03-23T04:28:28;5.20;;;2.10;;
66402;SDS011;53212;52.112;5.144;2023-03-23T04:30:59;3.70;;;2.10;;
66402;SDS011;53212;52.112;5.144;2023-03-23T04:33:26;6.30;;;2.10;;
66402;SDS011;53212;52.112;5.144;2023-03-23T04:35:54;5.40;;;2.20;;
66402;SDS011;53212;52.112;5.144;2023-03-23T04:38:22;4.50;;;1.70;;
66402;SDS011;53212;52.112;5.144;2023-03-23T04:40:51;4.90;;;2.10;;
66402;SDS011;53212;52.112;5.144;2023-03-23T04:43:22;5.00;;;2.20;;
66402;SDS011;53212;52.112;5.144;2023-03-23T04:45:56;4.30;;;2.00;;
66402;SDS011;53212;52.112;5.144;2023-03-23T04:48:24;6.00;;;1.80;;
66402;SDS011;53212;52.112;5.144;2023-03-23T04:50:51;6.00;;;2.10;;
66402;SDS011;53212;52.112;5.144;2023-03-23T04:53:17;7.30;;;1.90;;
66402;SDS011;53212;52.112;5.144;2023-03-23T04:55:43;4.70;;;1.60;;
66402;SDS011;53212;52.112;5.144;2023-03-23T04:58:09;5.90;;;1.80;;
66402;SDS011;53212;52.112;5.144;2023-03-23T05:00:37;4.90;;;1.90;;
66402;SDS011;53212;52.112;5.144;2023-03-23T05:03:03;5.30;;;1.70;;
66402;SDS011;53212;52.112;5.144;2023-03-23T05:05:29;9.00;;;2.00;;
66402;SDS011;53212;52.112;5.144;2023-03-23T05:07:55;7.40;;;2.30;;
66402;SDS011;53212;52.112;5.144;2023-03-23T05:10:21;4.80;;;1.90;;
66402;SDS011;53212;52.112;5.144;2023-03-23T05:12:47;5.20;;;2.10;;
66402;SDS011;53212;52.112;5.144;2023-03-23T05:15:14;5.30;;;2.20;;
66402;SDS011;53212;52.112;5.144;2023-03-23T05:17:41;5.80;;;2.20;;
66402;SDS011;53212;52.112;5.144;2023-03-23T05:20:12;10.00;;;2.60;;
66402;SDS011;53212;52.112;5.144;2023-03-23T05:22:39;6.20;;;2.50;;
66402;SDS011;53212;52.112;5.144;2023-03-23T05:25:07;7.20;;;2.00;;
66402;SDS011;53212;52.112;5.144;2023-03-23T05:27:39;5.40;;;1.90;;
66402;SDS011;53212;52.112;5.144;2023-03-23T05:30:07;8.70;;;2.60;;
66402;SDS011;53212;52.112;5.144;2023-03-23T05:32:33;7.00;;;2.40;;
66402;SDS011;53212;52.112;5.144;2023-03-23T05:34:59;6.90;;;1.90;;
66402;SDS011;53212;52.112;5.144;2023-03-23T05:37:27;7.00;;;2.20;;
66402;SDS011;53212;52.112;5.144;2023-03-23T05:39:57;7.00;;;2.10;;
66402;SDS011;53212;52.112;5.144;2023-03-23T05:42:29;6.20;;;2.30;;
66402;SDS011;53212;52.112;5.144;2023-03-23T05:44:54;7.40;;;2.10;;
66402;SDS011;53212;52.112;5.144;2023-03-23T05:47:20;11.90;;;3.20;;
66402;SDS011;53212;52.112;5.144;2023-03-23T05:49:45;5.30;;;2.00;;
66402;SDS011;53212;52.112;5.144;2023-03-23T05:52:11;5.60;;;2.30;;
66402;SDS011;53212;52.112;5.144;2023-03-23T05:54:36;8.70;;;3.00;;
66402;SDS011;53212;52.112;5.144;2023-03-23T05:57:02;7.30;;;2.60;;
66402;SDS011;53212;52.112;5.144;2023-03-23T05:59:28;8.30;;;2.90;;
66402;SDS011;53212;52.112;5.144;2023-03-23T06:01:54;7.90;;;2.70;;
66402;SDS011;53212;52.112;5.144;2023-03-23T06:04:20;7.00;;;2.60;;
66402;SDS011;53212;52.112;5.144;2023-03-23T06:06:50;5.60;;;2.20;;
66402;SDS011;53212;52.112;5.144;2023-03-23T06:09:17;7.40;;;2.50;;
66402;SDS011;53212;52.112;5.144;2023-03-23T06:11:43;9.70;;;2.50;;
66402;SDS011;53212;52.112;5.144;2023-03-23T06:14:09;5.50;;;2.00;;
66402;SDS011;53212;52.112;5.144;2023-03-23T06:16:35;5.60;;;2.30;;
66402;SDS011;53212;52.112;5.144;2023-03-23T06:19:01;5.80;;;2.10;;
66402;SDS011;53212;52.112;5.144;2023-03-23T06:21:32;6.30;;;2.20;;
66402;SDS011;53212;52.112;5.144;2023-03-23T06:23:58;6.40;;;2.60;;
66402;SDS011;53212;52.112;5.144;2023-03-23T06:26:28;4.70;;;2.50;;
66402;SDS011;53212;52.112;5.144;2023-03-23T06:28:57;10.60;;;3.00;;
66402;SDS011;53212;52.112;5.144;2023-03-23T06:31:23;7.10;;;2.50;;
66402;SDS011;53212;52.112;5.144;2023-03-23T06:33:50;6.00;;;2.70;;
66402;SDS011;53212;52.112;5.144;2023-03-23T06:36:15;6.90;;;2.60;;
66402;SDS011;53212;52.112;5.144;2023-03-23T06:38:41;6.70;;;2.80;;
66402;SDS011;53212;52.112;5.144;2023-03-23T06:41:07;6.80;;;2.40;;
66402;SDS011;53212;52.112;5.144;2023-03-23T06:43:34;6.60;;;1.90;;
66402;SDS011;53212;52.112;5.144;2023-03-23T06:46:01;5.60;;;2.20;;
66402;SDS011;53212;52.112;5.144;2023-03-23T06:48:26;6.30;;;2.10;;
66402;SDS011;53212;52.112;5.144;2023-03-23T06:50:52;7.20;;;3.00;;
66402;SDS011;53212;52.112;5.144;2023-03-23T06:53:18;6.10;;;2.10;;
66402;SDS011;53212;52.112;5.144;2023-03-23T06:55:45;7.50;;;2.70;;
66402;SDS011;53212;52.112;5.144;2023-03-23T06:58:11;9.20;;;2.80;;
66402;SDS011;53212;52.112;5.144;2023-03-23T07:00:37;6.60;;;2.40;;
66402;SDS011;53212;52.112;5.144;2023-03-23T07:03:03;8.70;;;2.00;;
66402;SDS011;53212;52.112;5.144;2023-03-23T07:05:29;12.00;;;2.50;;
66402;SDS011;53212;52.112;5.144;2023-03-23T07:07:55;7.30;;;2.30;;
66402;SDS011;53212;52.112;5.144;2023-03-23T07:10:21;8.10;;;2.40;;
66402;SDS011;53212;52.112;5.144;2023-03-23T07:12:46;6.50;;;2.50;;
66402;SDS011;53212;52.112;5.144;2023-03-23T07:15:12;6.30;;;2.40;;
66402;SDS011;53212;52.112;5.144;2023-03-23T07:17:38;7.60;;;2.70;;
66402;SDS011;53212;52.112;5.144;2023-03-23T07:20:05;7.80;;;2.30;;
66402;SDS011;53212;52.112;5.144;2023-03-23T07:22:32;8.30;;;2.60;;
66402;SDS011;53212;52.112;5.144;2023-03-23T07:24:58;8.50;;;3.40;;
66402;SDS011;53212;52.112;5.144;2023-03-23T07:27:24;6.40;;;2.30;;
66402;SDS011;53212;52.112;5.144;2023-03-23T07:29:50;6.40;;;2.30;;
66402;SDS011;53212;52.112;5.144;2023-03-23T07:32:15;5.90;;;2.50;;
66402;SDS011;53212;52.112;5.144;2023-03-23T07:34:41;8.30;;;2.50;;
66402;SDS011;53212;52.112;5.144;2023-03-23T07:37:07;6.30;;;2.10;;
66402;SDS011;53212;52.112;5.144;2023-03-23T07:39:33;9.50;;;2.40;;
66402;SDS011;53212;52.112;5.144;2023-03-23T07:41:59;11.90;;;2.50;;
66402;SDS011;53212;52.112;5.144;2023-03-23T07:44:25;6.20;;;2.50;;
66402;SDS011;53212;52.112;5.144;2023-03-23T07:46:51;7.80;;;2.30;;
66402;SDS011;53212;52.112;5.144;2023-03-23T07:49:17;5.90;;;2.40;;
66402;SDS011;53212;52.112;5.144;2023-03-23T07:51:44;6.30;;;2.40;;
66402;SDS011;53212;52.112;5.144;2023-03-23T07:54:10;9.60;;;2.60;;
66402;SDS011;53212;52.112;5.144;2023-03-23T07:56:37;8.40;;;2.70;;
66402;SDS011;53212;52.112;5.144;2023-03-23T07:59:05;6.50;;;2.20;;
66402;SDS011;53212;52.112;5.144;2023-03-23T08:01:32;6.30;;;2.40;;
66402;SDS011;53212;52.112;5.144;2023-03-23T08:03:57;6.70;;;2.20;;
66402;SDS011;53212;52.112;5.144;2023-03-23T08:06:25;5.70;;;1.80;;
66402;SDS011;53212;52.112;5.144;2023-03-23T08:08:51;6.10;;;2.30;;
66402;SDS011;53212;52.112;5.144;2023-03-23T08:11:17;5.10;;;2.10;;
66402;SDS011;53212;52.112;5.144;2023-03-23T08:13:44;6.50;;;2.30;;
66402;SDS011;53212;52.112;5.144;2023-03-23T08:16:10;5.80;;;2.00;;
66402;SDS011;53212;52.112;5.144;2023-03-23T08:18:36;4.00;;;1.80;;
66402;SDS011;53212;52.112;5.144;2023-03-23T08:21:05;4.90;;;1.90;;
66402;SDS011;53212;52.112;5.144;2023-03-23T08:23:34;8.60;;;2.10;;
66402;SDS011;53212;52.112;5.144;2023-03-23T08:25:59;4.30;;;2.00;;
66402;SDS011;53212;52.112;5.144;2023-03-23T08:28:26;6.00;;;2.20;;
66402;SDS011;53212;52.112;5.144;2023-03-23T08:30:51;5.60;;;1.90;;
66402;SDS011;53212;52.112;5.144;2023-03-23T08:33:17;5.00;;;2.10;;
66402;SDS011;53212;52.112;5.144;2023-03-23T08:35:43;6.00;;;2.40;;
66402;SDS011;53212;52.112;5.144;2023-03-23T08:38:10;5.60;;;2.00;;
66402;SDS011;53212;52.112;5.144;2023-03-23T08:40:36;8.00;;;2.40;;
66402;SDS011;53212;52.112;5.144;2023-03-23T08:43:02;8.00;;;2.80;;
66402;SDS011;53212;52.112;5.144;2023-03-23T08:45:28;5.90;;;2.50;;
66402;SDS011;53212;52.112;5.144;2023-03-23T08:47:53;7.70;;;2.20;;
66402;SDS011;53212;52.112;5.144;2023-03-23T08:50:23;8.00;;;2.50;;
66402;SDS011;53212;52.112;5.144;2023-03-23T08:52:51;8.40;;;2.80;;
66402;SDS011;53212;52.112;5.144;2023-03-23T08:55:18;7.60;;;2.50;;
66402;SDS011;53212;52.112;5.144;2023-03-23T08:57:44;4.90;;;2.10;;
66402;SDS011;53212;52.112;5.144;2023-03-23T09:00:13;6.70;;;2.40;;
66402;SDS011;53212;52.112;5.144;2023-03-23T09:02:49;6.00;;;2.30;;
66402;SDS011;53212;52.112;5.144;2023-03-23T09:05:18;7.30;;;2.90;;
66402;SDS011;53212;52.112;5.144;2023-03-23T09:07:48;6.90;;;2.30;;
66402;SDS011;53212;52.112;5.144;2023-03-23T09:10:15;7.50;;;2.80;;
66402;SDS011;53212;52.112;5.144;2023-03-23T09:12:42;9.20;;;2.90;;
66402;SDS011;53212;52.112;5.144;2023-03-23T09:15:10;8.20;;;2.60;;
66402;SDS011;53212;52.112;5.144;2023-03-23T09:17:47;9.10;;;2.50;;
66402;SDS011;53212;52.112;5.144;2023-03-23T09:20:16;7.80;;;2.10;;
66402;SDS011;53212;52.112;5.144;2023-03-23T09:22:48;8.30;;;2.70;;
66402;SDS011;53212;52.112;5.144;2023-03-23T09:25:17;11.70;;;3.60;;
66402;SDS011;53212;52.112;5.144;2023-03-23T09:27:46;11.00;;;3.10;;
66402;SDS011;53212;52.112;5.144;2023-03-23T09:30:17;7.80;;;2.90;;
66402;SDS011;53212;52.112;5.144;2023-03-23T09:32:44;13.60;;;2.80;;
66402;SDS011;53212;52.112;5.144;2023-03-23T09:35:10;9.00;;;2.40;;
66402;SDS011;53212;52.112;5.144;2023-03-23T09:37:40;7.90;;;2.80;;
66402;SDS011;53212;52.112;5.144;2023-03-23T09:40:10;7.90;;;2.70;;
66402;SDS011;53212;52.112;5.144;2023-03-23T09:51:12;13.70;;;3.10;;
66402;SDS011;53212;52.112;5.144;2023-03-23T09:53:53;9.10;;;3.50;;
66402;SDS011;53212;52.112;5.144;2023-03-23T09:56:21;8.40;;;2.40;;
66402;SDS011;53212;52.112;5.144;2023-03-23T09:59:00;8.10;;;2.70;;
66402;SDS011;53212;52.112;5.144;2023-03-23T10:01:36;7.80;;;2.20;;
66402;SDS011;53212;52.112;5.144;2023-03-23T10:07:12;9.20;;;2.50;;
66402;SDS011;53212;52.112;5.144;2023-03-23T10:09:42;11.60;;;3.10;;
66402;SDS011;53212;52.112;5.144;2023-03-23T10:12:27;10.20;;;2.70;;
66402;SDS011;53212;52.112;5.144;2023-03-23T10:18:01;9.20;;;2.60;;
66402;SDS011;53212;52.112;5.144;2023-03-23T10:25:57;6.80;;;2.50;;
66402;SDS011;53212;52.112;5.144;2023-03-23T10:28:48;11.30;;;2.90;;
66402;SDS011;53212;52.112;5.144;2023-03-23T10:31:22;8.60;;;2.60;;
66402;SDS011;53212;52.112;5.144;2023-03-23T10:33:52;8.90;;;2.60;;
66402;SDS011;53212;52.112;5.144;2023-03-23T10:39:13;10.90;;;2.70;;
66402;SDS011;53212;52.112;5.144;2023-03-23T10:41:43;12.60;;;2.80;;
66402;SDS011;53212;52.112;5.144;2023-03-23T10:44:29;10.30;;;2.90;;
66402;SDS011;53212;52.112;5.144;2023-03-23T10:49:42;8.70;;;2.60;;
66402;SDS011;53212;52.112;5.144;2023-03-23T10:52:37;6.80;;;2.90;;
66402;SDS011;53212;52.112;5.144;2023-03-23T10:55:08;12.70;;;2.30;;
66402;SDS011;53212;52.112;5.144;2023-03-23T10:57:40;10.90;;;2.80;;
66402;SDS011;53212;52.112;5.144;2023-03-23T11:02:41;9.10;;;2.40;;
66402;SDS011;53212;52.112;5.144;2023-03-23T11:05:23;11.90;;;2.90;;
66402;SDS011;53212;52.112;5.144;2023-03-23T11:07:55;10.30;;;2.80;;
66402;SDS011;53212;52.112;5.144;2023-03-23T11:10:36;8.00;;;2.30;;
66402;SDS011;53212;52.112;5.144;2023-03-23T11:13:04;14.00;;;2.60;;
66402;SDS011;53212;52.112;5.144;2023-03-23T11:15:40;10.40;;;2.90;;
66402;SDS011;53212;52.112;5.144;2023-03-23T11:18:34;6.40;;;2.40;;
66402;SDS011;53212;52.112;5.144;2023-03-23T11:21:02;9.70;;;2.60;;
66402;SDS011;53212;52.112;5.144;2023-03-23T11:23:38;9.70;;;2.40;;
66402;SDS011;53212;52.112;5.144;2023-03-23T11:26:27;7.50;;;2.20;;
66402;SDS011;53212;52.112;5.144;2023-03-23T11:34:45;8.90;;;2.90;;
66402;SDS011;53212;52.112;5.144;2023-03-23T11:37:19;11.10;;;2.40;;
66402;SDS011;53212;52.112;5.144;2023-03-23T11:39:54;9.50;;;2.70;;
66402;SDS011;53212;52.112;5.144;2023-03-23T11:42:25;7.10;;;2.80;;
66402;SDS011;53212;52.112;5.144;2023-03-23T11:56:39;10.30;;;3.20;;
66402;SDS011;53212;52.112;5.144;2023-03-23T11:59:25;11.60;;;2.60;;
66402;SDS011;53212;52.112;5.144;2023-03-23T12:02:04;11.50;;;3.00;;
66402;SDS011;53212;52.112;5.144;2023-03-23T12:04:40;6.90;;;2.10;;
66402;SDS011;53212;52.112;5.144;2023-03-23T12:07:37;7.90;;;2.70;;
66402;SDS011;53212;52.112;5.144;2023-03-23T12:16:06;11.40;;;3.10;;
66402;SDS011;53212;52.112;5.144;2023-03-23T12:25:40;10.00;;;2.60;;
66402;SDS011;53212;52.112;5.144;2023-03-23T12:31:25;7.50;;;2.50;;
66402;SDS011;53212;52.112;5.144;2023-03-23T12:34:02;7.90;;;2.10;;
66402;SDS011;53212;52.112;5.144;2023-03-23T12:45:18;5.60;;;2.10;;
66402;SDS011;53212;52.112;5.144;2023-03-23T12:48:04;7.20;;;2.10;;
66402;SDS011;53212;52.112;5.144;2023-03-23T12:53:23;11.80;;;2.60;;
66402;SDS011;53212;52.112;5.144;2023-03-23T12:56:19;5.70;;;2.10;;
66402;SDS011;53212;52.112;5.144;2023-03-23T13:02:09;9.10;;;2.60;;
66402;SDS011;53212;52.112;5.144;2023-03-23T13:04:44;10.10;;;2.40;;
66402;SDS011;53212;52.112;5.144;2023-03-23T13:07:17;7.00;;;2.00;;
66402;SDS011;53212;52.112;5.144;2023-03-23T13:10:21;7.50;;;2.40;;
66402;SDS011;53212;52.112;5.144;2023-03-23T13:13:03;6.50;;;2.10;;
66402;SDS011;53212;52.112;5.144;2023-03-23T13:15:38;10.90;;;2.40;;
66402;SDS011;53212;52.112;5.144;2023-03-23T13:18:20;6.00;;;1.80;;
66402;SDS011;53212;52.112;5.144;2023-03-23T13:21:02;6.20;;;1.90;;
66402;SDS011;53212;52.112;5.144;2023-03-23T13:23:38;6.10;;;1.70;;
66402;SDS011;53212;52.112;5.144;2023-03-23T13:26:16;6.80;;;1.90;;
66402;SDS011;53212;52.112;5.144;2023-03-23T13:31:35;7.70;;;2.40;;
66402;SDS011;53212;52.112;5.144;2023-03-23T13:34:12;8.20;;;2.30;;
66402;SDS011;53212;52.112;5.144;2023-03-23T13:36:39;4.20;;;1.70;;
66402;SDS011;53212;52.112;5.144;2023-03-23T13:39:22;7.10;;;1.70;;
66402;SDS011;53212;52.112;5.144;2023-03-23T13:58:21;7.10;;;2.10;;
66402;SDS011;53212;52.112;5.144;2023-03-23T14:00:50;7.90;;;2.30;;
66402;SDS011;53212;52.112;5.144;2023-03-23T14:03:39;8.30;;;2.10;;
66402;SDS011;53212;52.112;5.144;2023-03-23T14:06:36;5.10;;;2.00;;
66402;SDS011;53212;52.112;5.144;2023-03-23T14:09:15;4.60;;;1.40;;
66402;SDS011;53212;52.112;5.144;2023-03-23T14:11:50;5.20;;;1.60;;
66402;SDS011;53212;52.112;5.144;2023-03-23T14:14:27;4.40;;;1.90;;
66402;SDS011;53212;52.112;5.144;2023-03-23T14:19:41;4.70;;;1.90;;
66402;SDS011;53212;52.112;5.144;2023-03-23T14:22:24;3.60;;;1.80;;
66402;SDS011;53212;52.112;5.144;2023-03-23T14:25:00;4.70;;;2.10;;
66402;SDS011;53212;52.112;5.144;2023-03-23T14:27:38;5.40;;;1.60;;
66402;SDS011;53212;52.112;5.144;2023-03-23T14:30:06;5.80;;;1.90;;
66402;SDS011;53212;52.112;5.144;2023-03-23T14:32:34;6.70;;;2.50;;
66402;SDS011;53212;52.112;5.144;2023-03-23T14:35:04;6.50;;;2.40;;
66402;SDS011;53212;52.112;5.144;2023-03-23T14:37:34;7.00;;;2.80;;
66402;SDS011;53212;52.112;5.144;2023-03-23T14:40:03;6.60;;;2.20;;
66402;SDS011;53212;52.112;5.144;2023-03-23T14:42:32;7.50;;;2.20;;
66402;SDS011;53212;52.112;5.144;2023-03-23T14:45:00;8.10;;;2.30;;
66402;SDS011;53212;52.112;5.144;2023-03-23T14:47:38;6.20;;;1.80;;
66402;SDS011;53212;52.112;5.144;2023-03-23T14:50:23;8.20;;;2.20;;
66402;SDS011;53212;52.112;5.144;2023-03-23T14:52:51;7.10;;;2.50;;
66402;SDS011;53212;52.112;5.144;2023-03-23T14:55:21;6.30;;;2.00;;
66402;SDS011;53212;52.112;5.144;2023-03-23T14:57:48;3.70;;;1.70;;
66402;SDS011;53212;52.112;5.144;2023-03-23T15:02:50;7.90;;;2.30;;
66402;SDS011;53212;52.112;5.144;2023-03-23T15:05:44;9.00;;;2.30;;
66402;SDS011;53212;52.112;5.144;2023-03-23T15:08:24;8.00;;;2.10;;
66402;SDS011;53212;52.112;5.144;2023-03-23T15:11:28;6.50;;;2.50;;
66402;SDS011;53212;52.112;5.144;2023-03-23T15:13:58;8.60;;;2.50;;
66402;SDS011;53212;52.112;5.144;2023-03-23T15:16:32;9.70;;;2.50;;
66402;SDS011;53212;52.112;5.144;2023-03-23T15:21:35;7.70;;;2.50;;
66402;SDS011;53212;52.112;5.144;2023-03-23T15:26:54;6.80;;;2.20;;
66402;SDS011;53212;52.112;5.144;2023-03-23T15:29:29;7.80;;;2.60;;
66402;SDS011;53212;52.112;5.144;2023-03-23T15:31:55;7.40;;;2.20;;
66402;SDS011;53212;52.112;5.144;2023-03-23T15:34:25;7.10;;;2.50;;
66402;SDS011;53212;52.112;5.144;2023-03-23T15:36:57;8.60;;;2.60;;
66402;SDS011;53212;52.112;5.144;2023-03-23T15:39:26;11.40;;;2.80;;
66402;SDS011;53212;52.112;5.144;2023-03-23T15:41:52;6.50;;;2.20;;
66402;SDS011;53212;52.112;5.144;2023-03-23T15:44:22;6.40;;;2.40;;
66402;SDS011;53212;52.112;5.144;2023-03-23T15:46:51;7.60;;;2.30;;
66402;SDS011;53212;52.112;5.144;2023-03-23T15:49:26;9.40;;;2.80;;
66402;SDS011;53212;52.112;5.144;2023-03-23T15:51:51;7.90;;;2.50;;
66402;SDS011;53212;52.112;5.144;2023-03-23T15:54:16;8.20;;;2.50;;
66402;SDS011;53212;52.112;5.144;2023-03-23T15:56:43;10.50;;;2.30;;
66402;SDS011;53212;52.112;5.144;2023-03-23T15:59:09;8.70;;;2.60;;
66402;SDS011;53212;52.112;5.144;2023-03-23T16:01:36;9.60;;;2.90;;
66402;SDS011;53212;52.112;5.144;2023-03-23T16:04:12;9.40;;;2.60;;
66402;SDS011;53212;52.112;5.144;2023-03-23T16:06:40;8.50;;;2.70;;
66402;SDS011;53212;52.112;5.144;2023-03-23T16:09:07;10.10;;;3.10;;
66402;SDS011;53212;52.112;5.144;2023-03-23T16:11:35;9.30;;;2.90;;
66402;SDS011;53212;52.112;5.144;2023-03-23T16:14:01;9.40;;;2.90;;
66402;SDS011;53212;52.112;5.144;2023-03-23T16:16:38;8.00;;;2.90;;
66402;SDS011;53212;52.112;5.144;2023-03-23T16:19:08;8.40;;;2.60;;
66402;SDS011;53212;52.112;5.144;2023-03-23T16:21:37;11.20;;;2.80;;
66402;SDS011;53212;52.112;5.144;2023-03-23T16:24:02;10.30;;;2.40;;
66402;SDS011;53212;52.112;5.144;2023-03-23T16:26:28;11.90;;;3.10;;
66402;SDS011;53212;52.112;5.144;2023-03-23T16:28:53;8.10;;;2.60;;
66402;SDS011;53212;52.112;5.144;2023-03-23T16:31:19;10.00;;;3.00;;
66402;SDS011;53212;52.112;5.144;2023-03-23T16:33:44;8.90;;;2.30;;
66402;SDS011;53212;52.112;5.144;2023-03-23T16:36:12;7.30;;;2.50;;
66402;SDS011;53212;52.112;5.144;2023-03-23T16:38:39;9.30;;;3.00;;
66402;SDS011;53212;52.112;5.144;2023-03-23T16:41:06;13.10;;;2.70;;
66402;SDS011;53212;52.112;5.144;2023-03-23T16:43:33;10.40;;;3.40;;
66402;SDS011;53212;52.112;5.144;2023-03-23T16:45:59;8.80;;;2.90;;
66402;SDS011;53212;52.112;5.144;2023-03-23T16:48:25;13.20;;;2.80;;
66402;SDS011;53212;52.112;5.144;2023-03-23T16:50:51;8.40;;;2.70;;
66402;SDS011;53212;52.112;5.144;2023-03-23T16:53:19;11.80;;;2.90;;
66402;SDS011;53212;52.112;5.144;2023-03-23T16:55:45;10.10;;;2.80;;
66402;SDS011;53212;52.112;5.144;2023-03-23T16:58:15;11.00;;;3.20;;
66402;SDS011;53212;52.112;5.144;2023-03-23T17:00:42;9.00;;;3.50;;
66402;SDS011;53212;52.112;5.144;2023-03-23T17:03:08;9.90;;;2.80;;
66402;SDS011;53212;52.112;5.144;2023-03-23T17:05:35;8.20;;;3.00;;
66402;SDS011;53212;52.112;5.144;2023-03-23T17:08:01;11.10;;;2.60;;
66402;SDS011;53212;52.112;5.144;2023-03-23T17:10:28;7.80;;;2.70;;
66402;SDS011;53212;52.112;5.144;2023-03-23T17:12:55;11.90;;;3.00;;
66402;SDS011;53212;52.112;5.144;2023-03-23T17:15:21;9.00;;;2.80;;
66402;SDS011;53212;52.112;5.144;2023-03-23T17:17:48;7.50;;;2.90;;